createdAt,value
2019-03-18T00:02:26.000Z,4.10
2019-03-18T00:04:54.005Z,4.20
2019-03-18T00:07:22.812Z,4.00
2019-03-18T00:09:50.855Z,4.00
2019-03-18T00:12:19.663Z,3.90
2019-03-18T00:14:47.691Z,3.80
2019-03-18T00:17:16.522Z,4.10
2019-03-18T00:19:45.292Z,4.00
2019-03-18T00:22:14.204Z,3.90
2019-03-18T00:24:42.275Z,3.90
2019-03-18T00:27:11.154Z,3.90
2019-03-18T00:29:39.228Z,3.90
2019-03-18T00:32:07.259Z,3.80
2019-03-18T00:34:35.378Z,3.80
2019-03-18T00:37:03.407Z,3.80
2019-03-18T00:39:32.220Z,3.80
2019-03-18T00:42:00.251Z,3.80
2019-03-18T00:44:28.467Z,3.80
2019-03-18T00:46:56.549Z,3.80
2019-03-18T00:49:25.330Z,3.60
2019-03-18T00:51:53.394Z,3.60
2019-03-18T00:54:21.446Z,3.70
2019-03-18T00:56:50.240Z,3.80
2019-03-18T00:59:19.139Z,3.90
2019-03-18T01:01:47.177Z,3.90
2019-03-18T01:04:16.816Z,3.80
2019-03-18T01:06:44.847Z,3.80
2019-03-18T01:09:14.393Z,3.80
2019-03-18T01:11:42.428Z,3.80
2019-03-18T01:14:10.459Z,3.70
2019-03-18T01:16:38.549Z,3.80
2019-03-18T01:19:06.557Z,3.80
2019-03-18T01:21:35.358Z,3.80
2019-03-18T01:24:03.420Z,3.80
2019-03-18T01:26:32.319Z,3.80
2019-03-18T01:29:00.364Z,3.80
2019-03-18T01:31:28.396Z,3.80
2019-03-18T01:33:56.527Z,3.70
2019-03-18T01:36:24.600Z,3.80
2019-03-18T01:38:53.399Z,4.10
2019-03-18T01:41:21.700Z,4.00
2019-03-18T01:43:49.712Z,3.90
2019-03-18T01:46:18.523Z,3.70
2019-03-18T01:48:47.310Z,3.80
2019-03-18T01:51:15.484Z,3.80
2019-03-18T01:53:43.556Z,3.90
2019-03-18T01:56:11.636Z,3.70
2019-03-18T01:58:39.675Z,3.60
2019-03-18T02:01:08.472Z,3.50
2019-03-18T02:03:37.287Z,3.50
2019-03-18T02:06:05.295Z,3.50
2019-03-18T02:08:33.411Z,3.60
2019-03-18T02:11:01.455Z,3.60
2019-03-18T02:13:30.280Z,3.40
2019-03-18T02:15:59.051Z,3.30
2019-03-18T02:18:27.079Z,3.30
2019-03-18T02:20:55.288Z,3.30
2019-03-18T02:23:24.091Z,3.50
2019-03-18T02:25:52.123Z,3.50
2019-03-18T02:28:20.231Z,3.70
2019-03-18T02:30:48.299Z,3.50
2019-03-18T02:33:16.349Z,3.50
2019-03-18T02:35:45.149Z,3.50
2019-03-18T02:38:13.196Z,3.50
2019-03-18T02:40:41.278Z,3.50
2019-03-18T02:43:09.255Z,3.40
2019-03-18T02:45:37.328Z,3.50
2019-03-18T02:48:05.408Z,3.40
2019-03-18T02:50:33.483Z,3.40
2019-03-18T02:53:01.521Z,3.50
2019-03-18T02:55:29.621Z,3.60
2019-03-18T02:57:57.710Z,3.40
2019-03-18T03:00:25.724Z,3.50
2019-03-18T03:02:55.276Z,3.50
2019-03-18T03:05:23.340Z,3.50
2019-03-18T03:07:51.518Z,3.50
2019-03-18T03:10:19.588Z,3.50
2019-03-18T03:12:47.624Z,3.30
2019-03-18T03:15:16.454Z,3.50
2019-03-18T03:17:44.662Z,3.50
2019-03-18T03:20:13.299Z,3.30
2019-03-18T03:22:42.187Z,3.40
2019-03-18T03:25:10.261Z,3.40
2019-03-18T03:27:39.054Z,3.20
2019-03-18T03:30:07.937Z,3.20
2019-03-18T03:32:35.977Z,3.20
2019-03-18T03:35:04.829Z,3.20
2019-03-18T03:37:32.866Z,3.20
2019-03-18T03:40:00.904Z,3.20
2019-03-18T03:42:29.728Z,3.30
2019-03-18T03:44:58.509Z,3.30
2019-03-18T03:47:26.580Z,3.30
2019-03-18T03:49:54.632Z,3.20
2019-03-18T03:52:23.433Z,3.30
2019-03-18T03:54:51.478Z,3.30
2019-03-18T03:57:20.292Z,3.40
2019-03-18T03:59:48.368Z,3.30
2019-03-18T04:02:16.404Z,3.40
2019-03-18T04:04:44.501Z,3.50
2019-03-18T04:07:12.570Z,3.60
2019-03-18T04:09:40.649Z,3.60
2019-03-18T04:12:08.702Z,3.70
2019-03-18T04:14:36.786Z,3.60
2019-03-18T04:17:04.846Z,3.50
2019-03-18T04:19:32.851Z,3.30
2019-03-18T04:22:00.901Z,3.30
2019-03-18T04:24:30.104Z,3.20
2019-03-18T04:26:58.168Z,3.10
2019-03-18T04:29:26.247Z,3.30
2019-03-18T04:31:54.306Z,3.20
2019-03-18T04:34:22.349Z,3.20
2019-03-18T04:36:51.151Z,3.30
2019-03-18T04:39:19.183Z,3.30
2019-03-18T04:41:47.307Z,3.20
2019-03-18T04:44:15.347Z,3.30
2019-03-18T04:46:44.875Z,3.20
2019-03-18T04:49:12.917Z,3.20
2019-03-18T04:51:41.724Z,3.30
2019-03-18T04:54:09.807Z,3.30
2019-03-18T04:56:37.860Z,3.40
2019-03-18T04:59:06.668Z,3.40
2019-03-18T05:01:35.551Z,3.30
2019-03-18T05:04:03.583Z,3.30
2019-03-18T05:06:31.695Z,3.20
2019-03-18T05:08:59.764Z,3.10
2019-03-18T05:11:27.842Z,3.00
2019-03-18T05:13:56.838Z,3.20
2019-03-18T05:16:24.795Z,3.20
2019-03-18T05:18:52.828Z,3.30
2019-03-18T05:21:20.938Z,3.40
2019-03-18T05:23:49.100Z,3.50
2019-03-18T05:26:17.991Z,3.40
2019-03-18T05:28:46.027Z,3.30
2019-03-18T05:31:14.834Z,3.40
2019-03-18T05:33:43.647Z,3.40
2019-03-18T05:36:11.708Z,3.40
2019-03-18T05:38:39.740Z,3.40
2019-03-18T05:41:07.855Z,3.50
2019-03-18T05:43:35.984Z,3.50
2019-03-18T05:46:04.095Z,3.40
2019-03-18T05:48:32.177Z,3.40
2019-03-18T05:51:00.149Z,3.40
2019-03-18T05:53:28.210Z,3.50
2019-03-18T05:55:56.276Z,3.50
2019-03-18T05:58:24.350Z,3.40
2019-03-18T06:00:52.416Z,3.40
2019-03-18T06:03:20.467Z,3.30
2019-03-18T06:05:49.264Z,3.30
2019-03-18T06:08:17.312Z,3.30
2019-03-18T06:10:45.426Z,3.40
2019-03-18T06:13:13.467Z,3.40
2019-03-18T06:15:42.272Z,3.50
2019-03-18T06:18:10.308Z,3.50
2019-03-18T06:20:38.353Z,3.40
2019-03-18T06:23:06.501Z,3.40
2019-03-18T06:25:34.515Z,3.40
2019-03-18T06:28:02.631Z,3.40
2019-03-18T06:30:30.673Z,3.40
2019-03-18T06:32:58.765Z,3.30
2019-03-18T06:35:26.837Z,3.40
2019-03-18T06:37:54.893Z,3.50
2019-03-18T06:40:22.916Z,3.50
2019-03-18T06:42:50.963Z,3.60
2019-03-18T06:45:19.127Z,3.60
2019-03-18T06:47:47.903Z,3.70
2019-03-18T06:50:15.935Z,3.70
2019-03-18T06:52:43.983Z,3.60
2019-03-18T06:55:12.065Z,3.50
2019-03-18T06:57:40.083Z,3.70
2019-03-18T07:00:10.660Z,3.70
2019-03-18T07:02:38.705Z,3.60
2019-03-18T07:05:06.757Z,3.60
2019-03-18T07:07:34.802Z,3.70
2019-03-18T07:10:03.623Z,3.70
2019-03-18T07:12:31.679Z,3.70
2019-03-18T07:14:59.719Z,3.80
2019-03-18T07:17:27.819Z,3.80
2019-03-18T07:19:55.855Z,3.90
2019-03-18T07:22:24.064Z,4.10
2019-03-18T07:24:52.111Z,4.50
2019-03-18T07:27:20.224Z,4.50
2019-03-18T07:29:48.282Z,4.50
2019-03-18T07:32:16.323Z,4.50
2019-03-18T07:34:44.353Z,4.50
2019-03-18T07:37:12.395Z,4.30
2019-03-18T07:39:41.175Z,4.00
2019-03-18T07:42:09.323Z,4.00
2019-03-18T07:44:38.126Z,4.00
2019-03-18T07:47:06.143Z,4.00
2019-03-18T07:49:34.271Z,3.90
2019-03-18T07:52:02.353Z,3.90
2019-03-18T07:54:32.921Z,3.80
2019-03-18T07:56:58.588Z,3.80
2019-03-18T07:59:26.642Z,3.80
2019-03-18T08:01:55.433Z,3.60
2019-03-18T08:04:36.519Z,3.90
2019-03-18T08:06:52.323Z,3.90
2019-03-18T08:09:20.386Z,4.10
2019-03-18T08:11:48.453Z,5.00
2019-03-18T08:14:16.526Z,6.30
2019-03-18T08:16:44.604Z,6.30
2019-03-18T08:19:12.647Z,5.40
2019-03-18T08:21:41.654Z,4.40
2019-03-18T08:24:09.723Z,4.40
2019-03-18T08:26:37.765Z,4.60
2019-03-18T08:29:05.796Z,5.20
2019-03-18T08:31:33.936Z,5.50
2019-03-18T08:34:01.991Z,5.90
2019-03-18T08:36:30.897Z,6.10
2019-03-18T08:38:58.941Z,6.10
2019-03-18T08:41:27.747Z,5.80
2019-03-18T08:43:55.831Z,5.80
2019-03-18T08:46:23.891Z,6.30
2019-03-18T08:48:56.035Z,7.00
2019-03-18T08:51:20.081Z,8.10
2019-03-18T08:53:48.207Z,8.40
2019-03-18T08:56:16.256Z,8.70
2019-03-18T08:58:45.279Z,10.10
2019-03-18T09:01:13.345Z,10.00
2019-03-18T09:03:41.400Z,9.30
2019-03-18T09:06:10.298Z,9.30
2019-03-18T09:08:38.339Z,9.30
2019-03-18T09:11:06.443Z,9.50
2019-03-18T09:13:35.222Z,9.20
2019-03-18T09:16:03.307Z,9.20
2019-03-18T09:18:31.379Z,10.00
2019-03-18T09:20:59.440Z,10.60
2019-03-18T09:23:27.522Z,10.90
2019-03-18T09:25:56.306Z,11.70
2019-03-18T09:28:24.343Z,11.60
2019-03-18T09:30:52.367Z,10.20
2019-03-18T09:33:20.396Z,9.20
2019-03-18T09:35:49.204Z,7.00
2019-03-18T09:38:17.246Z,7.00
2019-03-18T09:40:46.073Z,6.00
2019-03-18T09:43:14.104Z,6.00
2019-03-18T09:45:43.017Z,5.60
2019-03-18T09:48:11.788Z,5.50
2019-03-18T09:50:40.598Z,5.40
2019-03-18T09:53:08.657Z,5.40
2019-03-18T09:55:36.691Z,5.50
2019-03-18T09:58:04.847Z,5.50
2019-03-18T10:00:32.872Z,5.50
2019-03-18T10:03:00.937Z,5.50
2019-03-18T10:05:29.011Z,5.50
2019-03-18T10:07:57.080Z,5.60
2019-03-18T10:10:25.125Z,7.20
2019-03-18T10:12:53.918Z,7.70
2019-03-18T10:15:22.733Z,6.90
2019-03-18T10:17:50.773Z,6.90
2019-03-18T10:20:19.587Z,6.40
2019-03-18T10:22:47.635Z,6.40
2019-03-18T10:25:16.445Z,6.70
2019-03-18T10:27:44.498Z,6.70
2019-03-18T10:30:14.152Z,6.10
2019-03-18T10:32:42.195Z,6.20
2019-03-18T10:35:10.270Z,5.90
2019-03-18T10:37:39.026Z,6.20
2019-03-18T10:40:11.419Z,6.20
2019-03-18T10:42:39.454Z,6.20
2019-03-18T10:45:08.386Z,6.10
2019-03-18T10:47:36.414Z,6.00
2019-03-18T10:50:05.239Z,5.90
2019-03-18T10:52:33.263Z,5.90
2019-03-18T10:55:01.374Z,5.80
2019-03-18T10:57:29.424Z,5.70
2019-03-18T11:00:01.118Z,5.80
2019-03-18T11:02:27.027Z,5.80
2019-03-18T11:04:55.857Z,5.80
2019-03-18T11:07:23.935Z,5.80
2019-03-18T11:09:52.023Z,6.10
2019-03-18T11:12:19.991Z,6.80
2019-03-18T11:14:48.796Z,7.00
2019-03-18T11:17:17.702Z,6.80
2019-03-18T11:19:57.499Z,6.80
2019-03-18T11:22:17.717Z,6.60
2019-03-18T11:24:46.224Z,6.70
2019-03-18T11:27:14.281Z,6.80
2019-03-18T11:29:43.093Z,6.80
2019-03-18T11:32:11.133Z,6.80
2019-03-18T11:34:39.257Z,6.70
2019-03-18T11:37:07.271Z,6.70
2019-03-18T11:39:35.304Z,6.30
2019-03-18T11:42:03.426Z,6.10
2019-03-18T11:44:31.504Z,5.90
2019-03-18T11:46:59.540Z,5.80
2019-03-18T11:49:39.185Z,5.90
2019-03-18T11:51:56.723Z,5.90
2019-03-18T11:54:24.823Z,6.00
2019-03-18T11:56:52.805Z,5.90
2019-03-18T11:59:21.209Z,5.90
2019-03-18T12:01:48.915Z,5.90
2019-03-18T12:04:16.991Z,5.60
2019-03-18T12:06:45.028Z,5.50
2019-03-18T12:09:13.824Z,5.30
2019-03-18T12:11:41.884Z,5.30
2019-03-18T12:14:10.679Z,5.60
2019-03-18T12:16:39.491Z,5.60
2019-03-18T12:19:07.503Z,5.60
2019-03-18T12:21:35.619Z,5.90
2019-03-18T12:24:03.686Z,6.10
2019-03-18T12:26:31.773Z,6.20
2019-03-18T12:29:00.551Z,6.30
2019-03-18T12:31:28.611Z,6.30
2019-03-18T12:33:57.532Z,6.50
2019-03-18T12:36:24.704Z,6.70
2019-03-18T12:38:52.727Z,7.10
2019-03-18T12:41:20.805Z,7.20
2019-03-18T12:43:48.840Z,6.90
2019-03-18T12:46:17.642Z,7.30
2019-03-18T12:48:46.595Z,7.90
2019-03-18T12:51:14.596Z,7.90
2019-03-18T12:53:43.487Z,8.80
2019-03-18T12:56:12.287Z,9.00
2019-03-18T12:58:40.323Z,9.00
2019-03-18T13:01:12.723Z,9.40
2019-03-18T13:03:36.653Z,9.90
2019-03-18T13:06:04.687Z,10.50
2019-03-18T13:08:32.737Z,10.20
2019-03-18T13:11:00.820Z,10.20
2019-03-18T13:13:28.884Z,9.50
2019-03-18T13:15:57.007Z,9.20
2019-03-18T13:18:24.998Z,8.40
2019-03-18T13:20:53.032Z,8.70
2019-03-18T13:23:21.075Z,9.30
2019-03-18T13:25:49.118Z,10.00
2019-03-18T13:28:17.935Z,8.30
2019-03-18T13:30:45.967Z,8.30
2019-03-18T13:33:14.781Z,7.90
2019-03-18T13:35:43.555Z,7.80
2019-03-18T13:38:12.391Z,7.60
2019-03-18T13:40:40.532Z,7.50
2019-03-18T13:43:08.580Z,7.60
2019-03-18T13:45:37.396Z,8.60
2019-03-18T13:48:05.451Z,8.60
2019-03-18T13:50:33.547Z,9.10
2019-03-18T13:53:01.601Z,9.20
2019-03-18T13:55:29.635Z,8.50
2019-03-18T13:57:57.684Z,8.10
2019-03-18T14:00:25.715Z,8.00
2019-03-18T14:02:53.751Z,8.10
2019-03-18T14:05:22.655Z,8.00
2019-03-18T14:08:00.127Z,7.90
2019-03-18T14:10:20.247Z,7.80
2019-03-18T14:12:48.315Z,7.80
2019-03-18T14:15:16.351Z,7.80
2019-03-18T14:17:45.155Z,7.40
2019-03-18T14:20:13.957Z,7.20
2019-03-18T14:22:41.996Z,7.20
2019-03-18T14:25:10.046Z,7.10
2019-03-18T14:27:38.071Z,6.80
2019-03-18T14:30:14.647Z,6.60
2019-03-18T14:32:42.684Z,6.40
2019-03-18T14:35:11.508Z,6.40
2019-03-18T14:37:40.275Z,6.50
2019-03-18T14:40:09.887Z,6.50
2019-03-18T14:42:37.979Z,6.50
2019-03-18T14:45:08.808Z,6.80
2019-03-18T14:47:36.844Z,6.80
2019-03-18T14:50:05.659Z,6.90
2019-03-18T14:52:33.720Z,6.90
2019-03-18T14:55:01.759Z,7.10
2019-03-18T14:57:30.591Z,7.40
2019-03-18T14:59:59.469Z,7.80
2019-03-18T15:02:27.522Z,7.80
2019-03-18T15:04:56.320Z,8.10
2019-03-18T15:07:25.331Z,8.10
2019-03-18T15:09:53.388Z,8.10
2019-03-18T15:12:21.467Z,8.10
2019-03-18T15:14:49.508Z,8.10
2019-03-18T15:17:18.339Z,7.60
2019-03-18T15:19:46.395Z,7.50
2019-03-18T15:22:14.471Z,7.50
2019-03-18T15:24:43.256Z,7.70
2019-03-18T15:27:11.310Z,7.70
2019-03-18T15:29:40.215Z,7.60
2019-03-18T15:32:08.383Z,7.60
2019-03-18T15:34:36.427Z,7.60
2019-03-18T15:37:05.219Z,7.60
2019-03-18T15:39:34.033Z,7.60
2019-03-18T15:42:02.807Z,7.60
2019-03-18T15:44:30.884Z,7.50
2019-03-18T15:46:58.955Z,7.40
2019-03-18T15:49:27.039Z,7.50
2019-03-18T15:51:55.100Z,7.40
2019-03-18T15:54:23.175Z,7.50
2019-03-18T15:56:51.244Z,7.50
2019-03-18T15:59:19.285Z,7.40
2019-03-18T16:01:48.217Z,7.20
2019-03-18T16:04:16.251Z,7.20
2019-03-18T16:06:45.068Z,7.10
2019-03-18T16:09:13.945Z,7.10
2019-03-18T16:11:41.974Z,7.10
2019-03-18T16:14:11.523Z,6.80
2019-03-18T16:16:39.560Z,6.80
2019-03-18T16:19:07.675Z,6.70
2019-03-18T16:21:35.699Z,6.70
2019-03-18T16:24:04.513Z,6.50
2019-03-18T16:26:32.527Z,6.50
2019-03-18T16:29:00.570Z,6.50
2019-03-18T16:31:28.595Z,6.30
2019-03-18T16:33:56.655Z,6.30
2019-03-18T16:36:24.764Z,6.20
2019-03-18T16:38:52.812Z,6.10
2019-03-18T16:41:21.639Z,6.00
2019-03-18T16:43:49.704Z,6.00
2019-03-18T16:46:17.757Z,5.90
2019-03-18T16:48:46.546Z,5.80
2019-03-18T16:51:15.467Z,5.70
2019-03-18T16:53:43.521Z,5.70
2019-03-18T16:56:11.573Z,5.60
2019-03-18T16:58:39.665Z,5.60
2019-03-18T17:01:07.699Z,5.50
2019-03-18T17:03:36.519Z,5.40
2019-03-18T17:06:05.304Z,5.40
2019-03-18T17:08:33.375Z,5.40
2019-03-18T17:11:01.436Z,5.40
2019-03-18T17:13:30.342Z,5.20
2019-03-18T17:15:58.450Z,5.20
2019-03-18T17:18:27.184Z,5.10
2019-03-18T17:20:55.226Z,5.10
2019-03-18T17:23:23.267Z,5.00
2019-03-18T17:25:51.320Z,5.00
2019-03-18T17:28:19.351Z,5.00
2019-03-18T17:30:48.306Z,4.90
2019-03-18T17:33:16.326Z,4.90
2019-03-18T17:35:44.340Z,4.90
2019-03-18T17:38:12.367Z,4.90
2019-03-18T17:40:40.407Z,4.90
2019-03-18T17:43:09.220Z,4.60
2019-03-18T17:45:37.263Z,4.60
2019-03-18T17:48:05.359Z,4.70
2019-03-18T17:50:33.452Z,4.80
2019-03-18T17:53:03.718Z,4.70
2019-03-18T17:55:29.520Z,4.90
2019-03-18T17:57:57.663Z,5.00
2019-03-18T18:00:32.755Z,5.00
2019-03-18T18:02:59.456Z,4.90
2019-03-18T18:05:27.492Z,4.90
2019-03-18T18:07:55.528Z,4.80
2019-03-18T18:10:23.583Z,4.80
2019-03-18T18:12:51.609Z,4.70
2019-03-18T18:15:19.659Z,4.70
2019-03-18T18:17:48.471Z,4.60
2019-03-18T18:20:16.532Z,4.60
2019-03-18T18:22:45.014Z,4.50
2019-03-18T18:25:13.013Z,4.40
2019-03-18T18:27:41.068Z,4.20
2019-03-18T18:30:10.643Z,4.20
2019-03-18T18:32:39.551Z,4.10
2019-03-18T18:35:07.590Z,4.10
2019-03-18T18:37:36.399Z,4.00
2019-03-18T18:40:09.109Z,4.00
2019-03-18T18:42:37.163Z,4.10
2019-03-18T18:45:05.195Z,4.00
2019-03-18T18:47:33.999Z,4.20
2019-03-18T18:50:02.057Z,4.10
2019-03-18T18:52:30.164Z,4.20
2019-03-18T18:54:58.191Z,4.10
2019-03-18T18:57:26.251Z,4.00
2019-03-18T18:59:54.286Z,3.90
2019-03-18T19:02:22.311Z,4.00
2019-03-18T19:04:51.215Z,4.00
2019-03-18T19:07:19.262Z,4.00
2019-03-18T19:09:48.076Z,4.00
2019-03-18T19:12:16.127Z,3.90
2019-03-18T19:14:44.313Z,4.00
2019-03-18T19:17:13.215Z,3.90
2019-03-18T19:19:41.280Z,3.90
2019-03-18T19:22:09.360Z,3.90
2019-03-18T19:24:37.403Z,3.90
2019-03-18T19:27:05.423Z,4.00
2019-03-18T19:29:33.463Z,4.10
2019-03-18T19:32:01.510Z,4.00
2019-03-18T19:34:30.312Z,3.90
2019-03-18T19:36:58.356Z,3.90
2019-03-18T19:39:26.451Z,4.00
2019-03-18T19:41:54.557Z,3.90
2019-03-18T19:44:22.591Z,3.80
2019-03-18T19:46:50.632Z,3.90
2019-03-18T19:49:18.692Z,3.90
2019-03-18T19:51:46.760Z,3.80
2019-03-18T19:54:14.791Z,3.90
2019-03-18T19:56:42.809Z,3.80
2019-03-18T19:59:10.928Z,3.70
2019-03-18T20:01:38.991Z,3.70
2019-03-18T20:04:07.067Z,3.80
2019-03-18T20:06:35.182Z,3.90
2019-03-18T20:09:03.218Z,4.00
2019-03-18T20:11:31.992Z,3.70
2019-03-18T20:14:00.040Z,3.70
2019-03-18T20:16:28.846Z,3.60
2019-03-18T20:18:56.887Z,3.60
2019-03-18T20:21:25.004Z,3.50
2019-03-18T20:24:00.822Z,3.50
2019-03-18T20:26:21.179Z,3.40
2019-03-18T20:28:49.257Z,3.40
2019-03-18T20:31:25.278Z,3.40
2019-03-18T20:33:45.315Z,3.30
2019-03-18T20:36:14.163Z,3.40
2019-03-18T20:38:42.234Z,3.30
2019-03-18T20:41:10.319Z,3.30
2019-03-18T20:43:38.451Z,3.30
2019-03-18T20:46:06.570Z,3.30
2019-03-18T20:48:34.615Z,3.40
2019-03-18T20:51:02.653Z,3.40
2019-03-18T20:53:30.748Z,3.40
2019-03-18T20:55:58.768Z,3.30
2019-03-18T20:58:27.583Z,3.20
2019-03-18T21:00:56.356Z,3.20
2019-03-18T21:03:25.155Z,3.20
2019-03-18T21:05:53.286Z,3.20
2019-03-18T21:08:21.277Z,3.00
2019-03-18T21:10:50.183Z,3.10
2019-03-18T21:13:19.087Z,3.00
2019-03-18T21:15:47.868Z,3.00
2019-03-18T21:18:16.123Z,3.00
2019-03-18T21:20:45.145Z,3.00
2019-03-18T21:23:13.183Z,2.90
2019-03-18T21:25:42.701Z,2.80
2019-03-18T21:28:11.497Z,2.80
2019-03-18T21:30:40.284Z,2.80
2019-03-18T21:33:08.406Z,2.80
2019-03-18T21:35:36.363Z,2.80
2019-03-18T21:38:04.403Z,2.70
2019-03-18T21:40:32.459Z,2.70
2019-03-18T21:43:01.244Z,2.70
2019-03-18T21:45:30.053Z,2.80
2019-03-18T21:47:58.092Z,2.80
2019-03-18T21:50:26.899Z,3.00
2019-03-18T21:52:54.974Z,2.90
2019-03-18T21:55:23.755Z,2.90
2019-03-18T21:57:51.794Z,2.90
2019-03-18T22:00:20.719Z,3.00
2019-03-18T22:02:49.594Z,2.80
2019-03-18T22:05:17.673Z,2.80
2019-03-18T22:07:45.704Z,3.00
2019-03-18T22:10:13.750Z,2.90
2019-03-18T22:12:41.822Z,2.80
2019-03-18T22:15:10.871Z,2.70
2019-03-18T22:17:38.909Z,2.60
2019-03-18T22:20:13.837Z,2.50
2019-03-18T22:22:41.952Z,2.40
2019-03-18T22:25:10.000Z,2.60
2019-03-18T22:27:38.104Z,2.60
2019-03-18T22:30:06.978Z,2.60
2019-03-18T22:32:35.007Z,2.60
2019-03-18T22:35:04.561Z,2.50
2019-03-18T22:37:32.595Z,2.50
2019-03-18T22:40:01.419Z,2.40
2019-03-18T22:42:30.199Z,2.50
2019-03-18T22:44:58.272Z,2.50
2019-03-18T22:47:26.294Z,2.60
2019-03-18T22:49:55.943Z,2.70
2019-03-18T22:52:23.976Z,2.70
2019-03-18T22:54:56.000Z,2.70
2019-03-18T22:57:20.052Z,2.50
2019-03-18T22:59:48.100Z,2.30
2019-03-18T23:02:16.114Z,2.20
2019-03-18T23:04:44.162Z,2.10
2019-03-18T23:07:13.047Z,1.90
2019-03-18T23:09:41.141Z,1.90
2019-03-18T23:12:09.172Z,2.00
2019-03-18T23:14:37.987Z,2.10
2019-03-18T23:17:06.022Z,2.10
2019-03-18T23:19:34.823Z,2.00
2019-03-18T23:22:03.011Z,2.00
2019-03-18T23:24:31.082Z,2.10
2019-03-18T23:26:59.148Z,2.30
2019-03-18T23:29:27.174Z,2.40
2019-03-18T23:31:55.227Z,2.40
2019-03-18T23:34:23.279Z,2.40
2019-03-18T23:36:51.328Z,2.50
2019-03-18T23:39:20.114Z,2.50
2019-03-18T23:41:48.168Z,2.40
2019-03-18T23:44:16.187Z,2.40
2019-03-18T23:46:44.234Z,2.40
2019-03-18T23:49:12.995Z,2.20
2019-03-18T23:51:41.812Z,2.20
2019-03-18T23:54:09.851Z,2.20
2019-03-18T23:56:37.872Z,2.10
2019-03-18T23:59:05.895Z,2.00
